• Join FlightAware (Why Join?)
  • Login
  • US Flag 
12:11PM EDT


 

Airport Tracker/Info


-or-


 

Live Flight TrackerFlight Track Log ✈ DLH917 ✈ 19-Apr-2013 ✈ EGLL / LHR - EDDF / FRA

Flight Track Log - Related Links

Times and Time Zones

All times are in EDT time to prevent confusion due to time zone crossing. See the DLH917 flight status page for this flight to view local times or setup timezone preferences in your user account.

Time Position Orientation Groundspeed Altitude Reporting Facility
EDT Latitude Longitude Course Direction KTS MPH feet Rate Location/Type
02:12PM 51.4145 0.0595 101° East  Level Estimated
02:13PM 51.3984 0.1895 101° East  Level Estimated
02:14PM 51.3822 0.3194 101° East  Level Estimated
02:15PM 51.3658 0.4492 101° East  Level Estimated
02:16PM 51.3493 0.5789 101° East  Level Estimated
02:17PM 51.3326 0.7085 102° East  Level Estimated
02:18PM 51.3158 0.8381 102° East  Level Estimated
02:19PM 51.2988 0.9675 102° East  Level Estimated
02:20PM 51.2817 1.0969 102° East  Level Estimated
02:21PM 51.2645 1.2261 102° East  Level Estimated
02:22PM 51.2471 1.3552 102° East  Level Estimated
02:23PM 51.2296 1.4843 102° East  Level Estimated
02:24PM 51.2119 1.6132 102° East  Level Estimated
02:25PM 51.1941 1.7421 102° East  Level Estimated
02:26PM 51.1761 1.8708 102° East  Level Estimated
02:27PM 51.1581 1.9995 103° East  Level Estimated
02:28PM 51.1398 2.1280 103° East  Level Estimated
02:29PM 51.1214 2.2565 103° East  Level Estimated
02:30PM 51.1029 2.3848 103° East  Level Estimated
02:31PM 51.0843 2.5131 103° East  Level Estimated
02:32PM 51.0654 2.6412 103° East  Level Estimated
02:33PM 51.0465 2.7692 103° East  Level Estimated
02:34PM 51.0274 2.8972 103° East  Level Estimated
02:35PM 51.0082 3.0250 103° East  Level Estimated
02:36PM 50.9888 3.1527 103° East  Level Estimated
02:37PM 50.9693 3.2803 104° East  Level Estimated
02:38PM 50.9497 3.4078 104° East  Level Estimated
02:39PM 50.9300 3.5352 104° East  Level Estimated
02:40PM 50.9100 3.6625 104° East  Level Estimated
02:41PM 50.8900 3.7896 104° East  Level Estimated
02:42PM 50.8698 3.9167 104° East  Level Estimated
02:43PM 50.8495 4.0436 104° East  Level Estimated
02:44PM 50.8290 4.1705 104° East  Level Estimated
02:45PM 50.8084 4.2972 104° East  Level Estimated
02:46PM 50.7877 4.4238 104° East  Level Estimated
02:47PM 50.7668 4.5503 105° East  Level Estimated
02:48PM 50.7458 4.6767 105° East  Level Estimated
02:49PM 50.7246 4.8030 105° East  Level Estimated
02:50PM 50.7034 4.9292 105° East  Level Estimated
02:51PM 50.6819 5.0552 105° East  Level Estimated
02:52PM 50.6604 5.1812 105° East  Level Estimated
02:53PM 50.6387 5.3070 105° East  Level Estimated
02:54PM 50.6169 5.4327 105° East  Level Estimated
02:55PM 50.5949 5.5583 105° East  Level Estimated
02:56PM 50.5728 5.6837 105° East  Level Estimated
02:57PM 50.5506 5.8091 106° East  Level Estimated
02:58PM 50.5282 5.9343 106° East  Level Estimated
02:59PM 50.5057 6.0594 106° East  Level Estimated
03:00PM 50.4831 6.1844 106° East  Level Estimated
03:01PM 50.4603 6.3093 106° East  Level Estimated
03:02PM 50.4374 6.4340 106° East  Level Estimated
03:03PM 50.4144 6.5587 106° East  Level Estimated
03:04PM 50.3912 6.6832 106° East  Level Estimated
03:05PM 50.3679 6.8076 106° East  Level Estimated
03:06PM 50.3445 6.9318 106° East  Level Estimated
03:07PM 50.3209 7.0560 107° East  Level Estimated
03:08PM 50.2972 7.1800 107° East  Level Estimated
03:09PM 50.2734 7.3039 107° East  Level Estimated
03:10PM 50.2494 7.4277 107° East  Level Estimated
03:11PM 50.2253 7.5513 107° East  Level Estimated
03:12PM 50.2011 7.6748 107° East  Level Estimated
03:13PM 50.1768 7.7982 107° East  Level Estimated
03:14PM 50.1523 7.9215 107° East  Level Estimated
03:15PM 50.1277 8.0447 107° East  Level Estimated
03:16PM 50.1029 8.1677 107° East  Level Estimated
03:17PM 50.0780 8.2906 107° East  Level Estimated
03:18PM 50.0530 8.4133 108° East  Level Estimated
03:19PM 50.0279 8.5359 108° East  Level Estimated
03:20PM 50.0264 8.5431 108° East  Level Estimated
03:21PM 50.0264 8.5431 73° East  Level Estimated
03:22PM 50.0264 8.5431 73° East  Level Estimated
03:23PM 50.0264 8.5431 73° East  Level Estimated
03:24PM 50.0264 8.5431 73° East  Level Estimated
03:25PM 50.0264 8.5431 73° East  Level Estimated
03:26PM 50.0264 8.5431 73° East  Level Estimated
03:27PM 50.0264 8.5431 73° East  Level Estimated
03:28PM 50.0264 8.5431 73° East  Level Estimated
03:29PM 50.0264 8.5431 73° East  Level Estimated
03:30PM 50.0264 8.5431 73° East  Level Estimated